Heino, Netherlands
Current Conditions -  °F | °C
As of 3:25 PM on Sunday 25 Jan 2015 (Local Time) from EHDL Reporting Station
Light Rain Light Rain  
Wind Chill: 32°   Ceiling: 300
Heat Index: 37°   Visibility: 2.3mi
Dew Point: 37°   Wind: 7mph
Humidity: 100%   Direction: 210°SSW
Pressure: 30.33"   Gusts: NA
Location:  52.44°N, 6.23°E
Report Text: EHDL 251425Z AUTO 21006KT 3700 -RA BKN003 OVC005 03/03 Q1027 YLO
Loading
Personal Weather Stations






























Interactive Weather Map New forecast layout! Learn more

10-Day Weather Forecast

Advertisements
Track Severe Weather on mobile